sensor_id;sensor_type;location;lat;lon;timestamp;P1;durP1;ratioP1;P2;durP2;ratioP2
12892;SDS011;6514;48.606;9.222;2023-11-21T00:00:33;2.77;;;1.53;;
12892;SDS011;6514;48.606;9.222;2023-11-21T00:03:00;5.40;;;1.90;;
12892;SDS011;6514;48.606;9.222;2023-11-21T00:05:27;3.33;;;1.90;;
12892;SDS011;6514;48.606;9.222;2023-11-21T00:07:55;2.33;;;1.40;;
12892;SDS011;6514;48.606;9.222;2023-11-21T00:10:22;7.50;;;1.83;;
12892;SDS011;6514;48.606;9.222;2023-11-21T00:12:49;5.80;;;1.93;;
12892;SDS011;6514;48.606;9.222;2023-11-21T00:15:15;4.50;;;1.97;;
12892;SDS011;6514;48.606;9.222;2023-11-21T00:17:42;3.73;;;2.07;;
12892;SDS011;6514;48.606;9.222;2023-11-21T00:20:09;3.47;;;2.10;;
12892;SDS011;6514;48.606;9.222;2023-11-21T00:22:38;4.07;;;1.70;;
12892;SDS011;6514;48.606;9.222;2023-11-21T00:25:07;5.50;;;1.93;;
12892;SDS011;6514;48.606;9.222;2023-11-21T00:27:34;3.00;;;1.87;;
12892;SDS011;6514;48.606;9.222;2023-11-21T00:30:01;7.80;;;2.00;;
12892;SDS011;6514;48.606;9.222;2023-11-21T00:32:30;3.83;;;2.03;;
12892;SDS011;6514;48.606;9.222;2023-11-21T00:34:57;2.53;;;1.70;;
12892;SDS011;6514;48.606;9.222;2023-11-21T00:37:24;4.13;;;2.33;;
12892;SDS011;6514;48.606;9.222;2023-11-21T00:39:51;4.30;;;2.07;;
12892;SDS011;6514;48.606;9.222;2023-11-21T00:42:19;3.50;;;2.00;;
12892;SDS011;6514;48.606;9.222;2023-11-21T00:44:46;5.17;;;2.50;;
12892;SDS011;6514;48.606;9.222;2023-11-21T00:47:16;3.23;;;2.17;;
12892;SDS011;6514;48.606;9.222;2023-11-21T00:49:42;3.07;;;1.83;;
12892;SDS011;6514;48.606;9.222;2023-11-21T00:52:09;5.83;;;2.23;;
12892;SDS011;6514;48.606;9.222;2023-11-21T00:54:36;4.17;;;2.13;;
12892;SDS011;6514;48.606;9.222;2023-11-21T00:57:03;6.67;;;3.47;;
12892;SDS011;6514;48.606;9.222;2023-11-21T00:59:31;2.90;;;2.57;;
12892;SDS011;6514;48.606;9.222;2023-11-21T01:01:58;6.73;;;1.80;;
12892;SDS011;6514;48.606;9.222;2023-11-21T01:04:26;5.53;;;2.10;;
12892;SDS011;6514;48.606;9.222;2023-11-21T01:06:53;3.07;;;1.60;;
12892;SDS011;6514;48.606;9.222;2023-11-21T01:09:20;4.63;;;1.77;;
12892;SDS011;6514;48.606;9.222;2023-11-21T01:11:47;2.47;;;1.63;;
12892;SDS011;6514;48.606;9.222;2023-11-21T01:14:14;3.27;;;1.40;;
12892;SDS011;6514;48.606;9.222;2023-11-21T01:16:44;3.53;;;1.60;;
12892;SDS011;6514;48.606;9.222;2023-11-21T01:19:10;4.73;;;1.40;;
12892;SDS011;6514;48.606;9.222;2023-11-21T01:21:38;2.67;;;1.33;;
12892;SDS011;6514;48.606;9.222;2023-11-21T01:24:05;4.83;;;1.70;;
12892;SDS011;6514;48.606;9.222;2023-11-21T01:26:34;3.77;;;1.40;;
12892;SDS011;6514;48.606;9.222;2023-11-21T01:29:01;6.03;;;1.47;;
12892;SDS011;6514;48.606;9.222;2023-11-21T01:31:28;3.37;;;1.17;;
12892;SDS011;6514;48.606;9.222;2023-11-21T01:33:56;3.53;;;1.53;;
12892;SDS011;6514;48.606;9.222;2023-11-21T01:36:29;5.03;;;1.50;;
12892;SDS011;6514;48.606;9.222;2023-11-21T01:38:56;5.50;;;1.30;;
12892;SDS011;6514;48.606;9.222;2023-11-21T01:41:24;2.17;;;1.30;;
12892;SDS011;6514;48.606;9.222;2023-11-21T01:43:52;2.97;;;1.10;;
12892;SDS011;6514;48.606;9.222;2023-11-21T01:46:18;1.87;;;1.10;;
12892;SDS011;6514;48.606;9.222;2023-11-21T01:48:46;3.90;;;1.23;;
12892;SDS011;6514;48.606;9.222;2023-11-21T01:51:15;5.00;;;1.43;;
12892;SDS011;6514;48.606;9.222;2023-11-21T01:53:43;1.97;;;0.87;;
12892;SDS011;6514;48.606;9.222;2023-11-21T01:56:11;1.73;;;0.83;;
12892;SDS011;6514;48.606;9.222;2023-11-21T01:58:39;2.40;;;1.10;;
12892;SDS011;6514;48.606;9.222;2023-11-21T02:01:06;1.73;;;1.07;;
12892;SDS011;6514;48.606;9.222;2023-11-21T02:03:34;4.47;;;1.30;;
12892;SDS011;6514;48.606;9.222;2023-11-21T02:06:01;4.97;;;1.73;;
12892;SDS011;6514;48.606;9.222;2023-11-21T02:08:32;2.27;;;0.90;;
12892;SDS011;6514;48.606;9.222;2023-11-21T02:10:59;2.83;;;1.10;;
12892;SDS011;6514;48.606;9.222;2023-11-21T02:13:27;2.20;;;0.80;;
12892;SDS011;6514;48.606;9.222;2023-11-21T02:15:54;2.10;;;0.90;;
12892;SDS011;6514;48.606;9.222;2023-11-21T02:18:21;2.23;;;1.00;;
12892;SDS011;6514;48.606;9.222;2023-11-21T02:20:48;1.83;;;0.80;;
12892;SDS011;6514;48.606;9.222;2023-11-21T02:23:16;1.93;;;0.77;;
12892;SDS011;6514;48.606;9.222;2023-11-21T02:25:43;3.83;;;1.10;;
12892;SDS011;6514;48.606;9.222;2023-11-21T02:28:09;5.60;;;1.00;;
12892;SDS011;6514;48.606;9.222;2023-11-21T02:30:37;2.77;;;1.07;;
12892;SDS011;6514;48.606;9.222;2023-11-21T02:33:04;3.83;;;1.00;;
12892;SDS011;6514;48.606;9.222;2023-11-21T02:35:32;1.33;;;0.80;;
12892;SDS011;6514;48.606;9.222;2023-11-21T02:38:00;1.77;;;0.90;;
12892;SDS011;6514;48.606;9.222;2023-11-21T02:40:28;2.30;;;1.00;;
12892;SDS011;6514;48.606;9.222;2023-11-21T02:42:55;2.00;;;0.90;;
12892;SDS011;6514;48.606;9.222;2023-11-21T02:45:24;4.63;;;1.00;;
12892;SDS011;6514;48.606;9.222;2023-11-21T02:47:51;2.40;;;0.83;;
12892;SDS011;6514;48.606;9.222;2023-11-21T02:50:21;3.17;;;0.80;;
12892;SDS011;6514;48.606;9.222;2023-11-21T02:55:55;2.77;;;0.70;;
12892;SDS011;6514;48.606;9.222;2023-11-21T02:58:22;2.10;;;0.80;;
12892;SDS011;6514;48.606;9.222;2023-11-21T03:00:49;3.23;;;0.93;;
12892;SDS011;6514;48.606;9.222;2023-11-21T03:03:16;2.07;;;0.77;;
12892;SDS011;6514;48.606;9.222;2023-11-21T03:05:43;0.60;;;0.60;;
12892;SDS011;6514;48.606;9.222;2023-11-21T03:08:10;1.23;;;0.90;;
12892;SDS011;6514;48.606;9.222;2023-11-21T03:10:37;0.90;;;0.60;;
12892;SDS011;6514;48.606;9.222;2023-11-21T03:13:05;1.53;;;0.80;;
12892;SDS011;6514;48.606;9.222;2023-11-21T03:15:32;1.40;;;0.57;;
12892;SDS011;6514;48.606;9.222;2023-11-21T03:18:00;2.50;;;0.70;;
12892;SDS011;6514;48.606;9.222;2023-11-21T03:20:28;0.67;;;0.60;;
12892;SDS011;6514;48.606;9.222;2023-11-21T03:22:55;0.97;;;0.60;;
12892;SDS011;6514;48.606;9.222;2023-11-21T03:25:22;2.43;;;0.70;;
12892;SDS011;6514;48.606;9.222;2023-11-21T03:27:49;1.63;;;0.87;;
12892;SDS011;6514;48.606;9.222;2023-11-21T03:30:17;3.07;;;0.70;;
12892;SDS011;6514;48.606;9.222;2023-11-21T03:32:44;1.07;;;0.80;;
12892;SDS011;6514;48.606;9.222;2023-11-21T03:35:10;2.87;;;0.60;;
12892;SDS011;6514;48.606;9.222;2023-11-21T03:37:37;1.67;;;0.60;;
12892;SDS011;6514;48.606;9.222;2023-11-21T03:40:07;1.40;;;0.77;;
12892;SDS011;6514;48.606;9.222;2023-11-21T03:42:34;1.80;;;0.60;;
12892;SDS011;6514;48.606;9.222;2023-11-21T03:45:01;0.97;;;0.60;;
12892;SDS011;6514;48.606;9.222;2023-11-21T03:47:30;0.93;;;0.63;;
12892;SDS011;6514;48.606;9.222;2023-11-21T03:49:57;3.07;;;0.77;;
12892;SDS011;6514;48.606;9.222;2023-11-21T03:52:24;2.00;;;0.70;;
12892;SDS011;6514;48.606;9.222;2023-11-21T03:54:52;2.00;;;0.60;;
12892;SDS011;6514;48.606;9.222;2023-11-21T03:57:19;2.83;;;0.60;;
12892;SDS011;6514;48.606;9.222;2023-11-21T03:59:46;1.30;;;0.60;;
12892;SDS011;6514;48.606;9.222;2023-11-21T04:02:15;1.70;;;0.70;;
12892;SDS011;6514;48.606;9.222;2023-11-21T04:04:43;1.53;;;0.57;;
12892;SDS011;6514;48.606;9.222;2023-11-21T04:07:10;1.63;;;0.70;;
12892;SDS011;6514;48.606;9.222;2023-11-21T04:09:38;2.57;;;0.87;;
12892;SDS011;6514;48.606;9.222;2023-11-21T04:12:06;2.43;;;1.20;;
12892;SDS011;6514;48.606;9.222;2023-11-21T04:14:34;2.17;;;1.30;;
12892;SDS011;6514;48.606;9.222;2023-11-21T04:17:00;2.40;;;1.13;;
12892;SDS011;6514;48.606;9.222;2023-11-21T04:19:29;1.23;;;0.90;;
12892;SDS011;6514;48.606;9.222;2023-11-21T04:21:57;2.87;;;0.90;;
12892;SDS011;6514;48.606;9.222;2023-11-21T04:24:24;2.00;;;0.57;;
12892;SDS011;6514;48.606;9.222;2023-11-21T04:26:50;0.63;;;0.60;;
12892;SDS011;6514;48.606;9.222;2023-11-21T04:29:18;1.83;;;1.23;;
12892;SDS011;6514;48.606;9.222;2023-11-21T04:31:45;2.20;;;1.30;;
12892;SDS011;6514;48.606;9.222;2023-11-21T04:34:13;1.00;;;0.80;;
12892;SDS011;6514;48.606;9.222;2023-11-21T04:36:43;0.40;;;0.40;;
12892;SDS011;6514;48.606;9.222;2023-11-21T04:39:11;2.00;;;0.70;;
12892;SDS011;6514;48.606;9.222;2023-11-21T04:41:38;1.70;;;0.50;;
12892;SDS011;6514;48.606;9.222;2023-11-21T04:44:05;1.50;;;0.60;;
12892;SDS011;6514;48.606;9.222;2023-11-21T04:46:32;0.37;;;0.37;;
12892;SDS011;6514;48.606;9.222;2023-11-21T04:48:59;1.47;;;0.57;;
12892;SDS011;6514;48.606;9.222;2023-11-21T04:51:25;1.20;;;0.50;;
12892;SDS011;6514;48.606;9.222;2023-11-21T04:53:53;1.13;;;0.30;;
12892;SDS011;6514;48.606;9.222;2023-11-21T04:56:21;0.80;;;0.47;;
12892;SDS011;6514;48.606;9.222;2023-11-21T04:58:47;0.53;;;0.50;;
12892;SDS011;6514;48.606;9.222;2023-11-21T05:01:16;1.33;;;0.40;;
12892;SDS011;6514;48.606;9.222;2023-11-21T05:03:43;0.40;;;0.40;;
12892;SDS011;6514;48.606;9.222;2023-11-21T05:06:11;0.70;;;0.50;;
12892;SDS011;6514;48.606;9.222;2023-11-21T05:08:37;1.03;;;0.47;;
12892;SDS011;6514;48.606;9.222;2023-11-21T05:11:04;0.63;;;0.43;;
12892;SDS011;6514;48.606;9.222;2023-11-21T05:13:34;0.67;;;0.33;;
12892;SDS011;6514;48.606;9.222;2023-11-21T05:16:01;0.57;;;0.50;;
12892;SDS011;6514;48.606;9.222;2023-11-21T05:18:30;0.53;;;0.40;;
12892;SDS011;6514;48.606;9.222;2023-11-21T05:20:57;0.43;;;0.43;;
12892;SDS011;6514;48.606;9.222;2023-11-21T05:23:24;2.50;;;0.77;;
12892;SDS011;6514;48.606;9.222;2023-11-21T05:25:51;1.23;;;0.70;;
12892;SDS011;6514;48.606;9.222;2023-11-21T05:28:18;0.70;;;0.67;;
12892;SDS011;6514;48.606;9.222;2023-11-21T05:30:46;0.60;;;0.50;;
12892;SDS011;6514;48.606;9.222;2023-11-21T05:33:15;0.83;;;0.40;;
12892;SDS011;6514;48.606;9.222;2023-11-21T05:35:41;2.27;;;0.47;;
12892;SDS011;6514;48.606;9.222;2023-11-21T05:38:08;0.90;;;0.63;;
12892;SDS011;6514;48.606;9.222;2023-11-21T05:40:36;0.77;;;0.60;;
12892;SDS011;6514;48.606;9.222;2023-11-21T05:43:02;0.60;;;0.57;;
12892;SDS011;6514;48.606;9.222;2023-11-21T05:45:30;0.83;;;0.40;;
12892;SDS011;6514;48.606;9.222;2023-11-21T05:47:58;2.10;;;0.60;;
12892;SDS011;6514;48.606;9.222;2023-11-21T05:50:25;0.60;;;0.60;;
12892;SDS011;6514;48.606;9.222;2023-11-21T05:52:52;0.70;;;0.70;;
12892;SDS011;6514;48.606;9.222;2023-11-21T05:55:19;0.60;;;0.50;;
12892;SDS011;6514;48.606;9.222;2023-11-21T05:57:50;0.80;;;0.60;;
12892;SDS011;6514;48.606;9.222;2023-11-21T06:00:17;1.43;;;0.63;;
12892;SDS011;6514;48.606;9.222;2023-11-21T06:02:46;0.77;;;0.40;;
12892;SDS011;6514;48.606;9.222;2023-11-21T06:05:17;1.50;;;0.60;;
12892;SDS011;6514;48.606;9.222;2023-11-21T06:07:45;0.80;;;0.70;;
12892;SDS011;6514;48.606;9.222;2023-11-21T06:10:12;1.73;;;1.40;;
12892;SDS011;6514;48.606;9.222;2023-11-21T06:12:39;2.80;;;1.20;;
12892;SDS011;6514;48.606;9.222;2023-11-21T06:15:08;1.63;;;1.00;;
12892;SDS011;6514;48.606;9.222;2023-11-21T06:17:38;0.87;;;0.60;;
12892;SDS011;6514;48.606;9.222;2023-11-21T06:20:06;1.57;;;0.70;;
12892;SDS011;6514;48.606;9.222;2023-11-21T06:22:36;1.40;;;0.70;;
12892;SDS011;6514;48.606;9.222;2023-11-21T06:25:04;1.40;;;1.00;;
12892;SDS011;6514;48.606;9.222;2023-11-21T06:27:31;2.70;;;1.60;;
12892;SDS011;6514;48.606;9.222;2023-11-21T06:29:59;1.83;;;1.70;;
12892;SDS011;6514;48.606;9.222;2023-11-21T06:32:27;1.97;;;1.50;;
12892;SDS011;6514;48.606;9.222;2023-11-21T06:34:55;2.23;;;1.33;;
12892;SDS011;6514;48.606;9.222;2023-11-21T06:37:24;1.30;;;1.03;;
12892;SDS011;6514;48.606;9.222;2023-11-21T06:39:53;18.60;;;9.37;;
12892;SDS011;6514;48.606;9.222;2023-11-21T06:42:19;23.17;;;11.90;;
12892;SDS011;6514;48.606;9.222;2023-11-21T06:44:46;21.00;;;11.77;;
12892;SDS011;6514;48.606;9.222;2023-11-21T06:47:16;5.33;;;3.37;;
12892;SDS011;6514;48.606;9.222;2023-11-21T06:49:45;3.13;;;2.20;;
12892;SDS011;6514;48.606;9.222;2023-11-21T06:52:14;4.20;;;2.13;;
12892;SDS011;6514;48.606;9.222;2023-11-21T06:54:40;2.07;;;1.50;;
12892;SDS011;6514;48.606;9.222;2023-11-21T06:57:08;1.73;;;1.07;;
12892;SDS011;6514;48.606;9.222;2023-11-21T06:59:35;1.43;;;1.00;;
12892;SDS011;6514;48.606;9.222;2023-11-21T07:02:02;1.20;;;0.97;;
12892;SDS011;6514;48.606;9.222;2023-11-21T07:04:33;0.97;;;0.87;;
12892;SDS011;6514;48.606;9.222;2023-11-21T07:07:01;1.77;;;0.90;;
12892;SDS011;6514;48.606;9.222;2023-11-21T07:09:28;1.50;;;0.90;;
12892;SDS011;6514;48.606;9.222;2023-11-21T07:11:56;2.13;;;1.00;;
12892;SDS011;6514;48.606;9.222;2023-11-21T07:14:26;1.27;;;1.00;;
12892;SDS011;6514;48.606;9.222;2023-11-21T07:16:53;1.70;;;1.20;;
12892;SDS011;6514;48.606;9.222;2023-11-21T07:19:22;2.03;;;0.83;;
12892;SDS011;6514;48.606;9.222;2023-11-21T07:21:50;2.47;;;0.93;;
12892;SDS011;6514;48.606;9.222;2023-11-21T07:24:17;2.37;;;0.93;;
12892;SDS011;6514;48.606;9.222;2023-11-21T07:26:44;2.80;;;1.07;;
12892;SDS011;6514;48.606;9.222;2023-11-21T07:29:13;1.13;;;1.03;;
12892;SDS011;6514;48.606;9.222;2023-11-21T07:31:44;1.10;;;0.83;;
12892;SDS011;6514;48.606;9.222;2023-11-21T07:34:11;1.40;;;0.90;;
12892;SDS011;6514;48.606;9.222;2023-11-21T07:36:38;1.20;;;1.00;;
12892;SDS011;6514;48.606;9.222;2023-11-21T07:39:04;2.50;;;0.87;;
12892;SDS011;6514;48.606;9.222;2023-11-21T07:41:31;3.40;;;0.80;;
12892;SDS011;6514;48.606;9.222;2023-11-21T07:43:58;1.30;;;0.83;;
12892;SDS011;6514;48.606;9.222;2023-11-21T07:46:25;1.37;;;0.60;;
12892;SDS011;6514;48.606;9.222;2023-11-21T07:48:54;1.20;;;0.60;;
12892;SDS011;6514;48.606;9.222;2023-11-21T07:51:21;2.40;;;1.10;;
12892;SDS011;6514;48.606;9.222;2023-11-21T07:53:48;1.37;;;0.80;;
12892;SDS011;6514;48.606;9.222;2023-11-21T07:56:15;1.13;;;0.90;;
12892;SDS011;6514;48.606;9.222;2023-11-21T07:58:42;1.53;;;0.90;;
12892;SDS011;6514;48.606;9.222;2023-11-21T08:01:10;1.07;;;0.70;;
12892;SDS011;6514;48.606;9.222;2023-11-21T08:03:37;1.03;;;0.60;;
12892;SDS011;6514;48.606;9.222;2023-11-21T08:06:06;2.07;;;0.60;;
12892;SDS011;6514;48.606;9.222;2023-11-21T08:08:33;1.23;;;0.80;;
12892;SDS011;6514;48.606;9.222;2023-11-21T08:11:00;2.87;;;0.50;;
12892;SDS011;6514;48.606;9.222;2023-11-21T08:13:29;1.23;;;0.50;;
12892;SDS011;6514;48.606;9.222;2023-11-21T08:15:56;1.40;;;0.60;;
12892;SDS011;6514;48.606;9.222;2023-11-21T08:18:28;0.60;;;0.60;;
12892;SDS011;6514;48.606;9.222;2023-11-21T08:20:54;0.77;;;0.60;;
12892;SDS011;6514;48.606;9.222;2023-11-21T08:23:23;1.40;;;0.70;;
12892;SDS011;6514;48.606;9.222;2023-11-21T08:25:50;0.70;;;0.60;;
12892;SDS011;6514;48.606;9.222;2023-11-21T08:28:18;0.83;;;0.57;;
12892;SDS011;6514;48.606;9.222;2023-11-21T08:30:47;0.80;;;0.50;;
12892;SDS011;6514;48.606;9.222;2023-11-21T08:33:14;0.97;;;0.80;;
12892;SDS011;6514;48.606;9.222;2023-11-21T08:35:41;0.80;;;0.80;;
12892;SDS011;6514;48.606;9.222;2023-11-21T08:38:08;3.37;;;0.97;;
12892;SDS011;6514;48.606;9.222;2023-11-21T08:40:37;2.27;;;1.00;;
12892;SDS011;6514;48.606;9.222;2023-11-21T08:43:04;2.03;;;1.30;;
12892;SDS011;6514;48.606;9.222;2023-11-21T08:45:33;2.00;;;1.50;;
12892;SDS011;6514;48.606;9.222;2023-11-21T08:48:00;3.17;;;1.43;;
12892;SDS011;6514;48.606;9.222;2023-11-21T08:50:26;3.93;;;1.40;;
12892;SDS011;6514;48.606;9.222;2023-11-21T08:52:53;2.80;;;1.07;;
12892;SDS011;6514;48.606;9.222;2023-11-21T08:55:20;2.17;;;1.50;;
12892;SDS011;6514;48.606;9.222;2023-11-21T08:57:48;3.33;;;1.50;;
12892;SDS011;6514;48.606;9.222;2023-11-21T09:00:16;1.60;;;1.10;;
12892;SDS011;6514;48.606;9.222;2023-11-21T09:02:44;1.17;;;0.90;;
12892;SDS011;6514;48.606;9.222;2023-11-21T09:05:12;1.20;;;1.10;;
12892;SDS011;6514;48.606;9.222;2023-11-21T09:07:42;3.10;;;1.37;;
12892;SDS011;6514;48.606;9.222;2023-11-21T09:10:11;1.07;;;0.93;;
12892;SDS011;6514;48.606;9.222;2023-11-21T09:12:39;1.73;;;1.10;;
12892;SDS011;6514;48.606;9.222;2023-11-21T09:15:10;1.83;;;0.97;;
12892;SDS011;6514;48.606;9.222;2023-11-21T09:17:36;2.10;;;0.90;;
12892;SDS011;6514;48.606;9.222;2023-11-21T09:20:04;1.70;;;0.80;;
12892;SDS011;6514;48.606;9.222;2023-11-21T09:22:35;1.40;;;0.77;;
12892;SDS011;6514;48.606;9.222;2023-11-21T09:25:01;2.87;;;0.80;;
12892;SDS011;6514;48.606;9.222;2023-11-21T09:27:30;0.90;;;0.70;;
12892;SDS011;6514;48.606;9.222;2023-11-21T09:29:57;1.70;;;0.93;;
12892;SDS011;6514;48.606;9.222;2023-11-21T09:32:25;1.73;;;0.90;;
12892;SDS011;6514;48.606;9.222;2023-11-21T09:34:52;1.07;;;0.90;;
12892;SDS011;6514;48.606;9.222;2023-11-21T09:37:20;1.70;;;0.83;;
12892;SDS011;6514;48.606;9.222;2023-11-21T09:39:47;1.00;;;0.70;;
12892;SDS011;6514;48.606;9.222;2023-11-21T09:42:15;2.23;;;0.93;;
12892;SDS011;6514;48.606;9.222;2023-11-21T09:44:48;2.40;;;0.60;;
12892;SDS011;6514;48.606;9.222;2023-11-21T09:47:23;1.40;;;0.77;;
12892;SDS011;6514;48.606;9.222;2023-11-21T09:49:53;1.23;;;0.80;;
12892;SDS011;6514;48.606;9.222;2023-11-21T09:52:22;2.23;;;0.73;;
12892;SDS011;6514;48.606;9.222;2023-11-21T09:54:51;1.00;;;0.80;;
12892;SDS011;6514;48.606;9.222;2023-11-21T09:57:19;1.80;;;0.90;;
12892;SDS011;6514;48.606;9.222;2023-11-21T09:59:48;1.03;;;0.63;;
12892;SDS011;6514;48.606;9.222;2023-11-21T10:02:20;1.43;;;0.83;;
12892;SDS011;6514;48.606;9.222;2023-11-21T10:04:52;2.93;;;0.60;;
12892;SDS011;6514;48.606;9.222;2023-11-21T10:07:19;2.30;;;0.60;;
12892;SDS011;6514;48.606;9.222;2023-11-21T10:09:47;3.33;;;0.67;;
12892;SDS011;6514;48.606;9.222;2023-11-21T10:12:14;0.77;;;0.73;;
12892;SDS011;6514;48.606;9.222;2023-11-21T10:14:44;1.03;;;0.90;;
12892;SDS011;6514;48.606;9.222;2023-11-21T10:17:14;2.83;;;1.70;;
12892;SDS011;6514;48.606;9.222;2023-11-21T10:19:43;1.70;;;1.30;;
12892;SDS011;6514;48.606;9.222;2023-11-21T10:22:15;2.57;;;1.50;;
12892;SDS011;6514;48.606;9.222;2023-11-21T10:24:42;2.87;;;1.60;;
12892;SDS011;6514;48.606;9.222;2023-11-21T10:27:09;1.43;;;1.17;;
12892;SDS011;6514;48.606;9.222;2023-11-21T10:29:36;2.93;;;1.53;;
12892;SDS011;6514;48.606;9.222;2023-11-21T10:32:03;1.87;;;1.00;;
12892;SDS011;6514;48.606;9.222;2023-11-21T10:34:30;2.53;;;1.77;;
12892;SDS011;6514;48.606;9.222;2023-11-21T10:36:58;3.00;;;1.77;;
12892;SDS011;6514;48.606;9.222;2023-11-21T10:39:38;3.83;;;1.70;;
12892;SDS011;6514;48.606;9.222;2023-11-21T10:42:07;1.97;;;1.50;;
12892;SDS011;6514;48.606;9.222;2023-11-21T10:44:34;2.00;;;1.10;;
12892;SDS011;6514;48.606;9.222;2023-11-21T10:47:01;1.13;;;0.90;;
12892;SDS011;6514;48.606;9.222;2023-11-21T10:49:28;1.13;;;1.03;;
12892;SDS011;6514;48.606;9.222;2023-11-21T10:51:56;1.43;;;1.20;;
12892;SDS011;6514;48.606;9.222;2023-11-21T10:54:24;1.33;;;1.23;;
12892;SDS011;6514;48.606;9.222;2023-11-21T10:56:55;1.97;;;1.03;;
12892;SDS011;6514;48.606;9.222;2023-11-21T10:59:23;1.23;;;1.00;;
12892;SDS011;6514;48.606;9.222;2023-11-21T11:01:54;1.17;;;1.00;;
12892;SDS011;6514;48.606;9.222;2023-11-21T11:04:26;2.50;;;1.00;;
12892;SDS011;6514;48.606;9.222;2023-11-21T11:06:54;1.10;;;0.90;;
12892;SDS011;6514;48.606;9.222;2023-11-21T11:09:23;1.27;;;0.97;;
12892;SDS011;6514;48.606;9.222;2023-11-21T11:11:50;2.03;;;0.90;;
12892;SDS011;6514;48.606;9.222;2023-11-21T11:14:20;1.00;;;0.90;;
12892;SDS011;6514;48.606;9.222;2023-11-21T11:16:50;0.87;;;0.80;;
12892;SDS011;6514;48.606;9.222;2023-11-21T11:19:19;2.20;;;1.13;;
12892;SDS011;6514;48.606;9.222;2023-11-21T11:21:48;1.57;;;1.13;;
12892;SDS011;6514;48.606;9.222;2023-11-21T11:24:33;1.40;;;1.07;;
12892;SDS011;6514;48.606;9.222;2023-11-21T11:27:11;1.30;;;1.00;;
12892;SDS011;6514;48.606;9.222;2023-11-21T11:29:50;2.17;;;1.43;;
12892;SDS011;6514;48.606;9.222;2023-11-21T11:32:30;3.77;;;1.10;;
12892;SDS011;6514;48.606;9.222;2023-11-21T11:35:07;1.00;;;0.90;;
12892;SDS011;6514;48.606;9.222;2023-11-21T11:37:41;1.00;;;0.90;;
12892;SDS011;6514;48.606;9.222;2023-11-21T11:40:10;1.10;;;1.00;;
12892;SDS011;6514;48.606;9.222;2023-11-21T11:42:37;1.57;;;0.90;;
12892;SDS011;6514;48.606;9.222;2023-11-21T11:45:18;1.23;;;0.93;;
12892;SDS011;6514;48.606;9.222;2023-11-21T11:47:45;1.03;;;0.97;;
12892;SDS011;6514;48.606;9.222;2023-11-21T11:50:14;2.13;;;1.00;;
12892;SDS011;6514;48.606;9.222;2023-11-21T11:52:43;2.03;;;1.20;;
12892;SDS011;6514;48.606;9.222;2023-11-21T11:55:11;1.10;;;1.00;;
12892;SDS011;6514;48.606;9.222;2023-11-21T11:57:39;0.77;;;0.77;;
12892;SDS011;6514;48.606;9.222;2023-11-21T12:00:08;1.00;;;0.97;;
12892;SDS011;6514;48.606;9.222;2023-11-21T12:02:37;1.30;;;1.00;;
12892;SDS011;6514;48.606;9.222;2023-11-21T12:05:07;1.00;;;0.80;;
12892;SDS011;6514;48.606;9.222;2023-11-21T12:07:41;1.17;;;0.57;;
12892;SDS011;6514;48.606;9.222;2023-11-21T12:10:11;1.80;;;0.90;;
12892;SDS011;6514;48.606;9.222;2023-11-21T12:12:42;0.50;;;0.50;;
12892;SDS011;6514;48.606;9.222;2023-11-21T12:15:11;0.60;;;0.60;;
12892;SDS011;6514;48.606;9.222;2023-11-21T12:17:41;0.60;;;0.50;;
12892;SDS011;6514;48.606;9.222;2023-11-21T12:20:09;0.67;;;0.67;;
12892;SDS011;6514;48.606;9.222;2023-11-21T12:22:43;1.33;;;0.57;;
12892;SDS011;6514;48.606;9.222;2023-11-21T12:25:13;0.70;;;0.70;;
12892;SDS011;6514;48.606;9.222;2023-11-21T12:27:43;0.57;;;0.57;;
12892;SDS011;6514;48.606;9.222;2023-11-21T12:30:11;0.40;;;0.40;;
12892;SDS011;6514;48.606;9.222;2023-11-21T12:32:42;4.43;;;0.73;;
12892;SDS011;6514;48.606;9.222;2023-11-21T12:35:11;0.73;;;0.60;;
12892;SDS011;6514;48.606;9.222;2023-11-21T12:37:38;0.50;;;0.50;;
12892;SDS011;6514;48.606;9.222;2023-11-21T12:40:08;0.70;;;0.30;;
12892;SDS011;6514;48.606;9.222;2023-11-21T12:42:37;0.87;;;0.60;;
12892;SDS011;6514;48.606;9.222;2023-11-21T12:45:09;0.70;;;0.60;;
12892;SDS011;6514;48.606;9.222;2023-11-21T12:47:46;0.50;;;0.50;;
12892;SDS011;6514;48.606;9.222;2023-11-21T12:50:14;2.13;;;0.57;;
12892;SDS011;6514;48.606;9.222;2023-11-21T12:52:41;0.80;;;0.60;;
12892;SDS011;6514;48.606;9.222;2023-11-21T12:55:13;1.97;;;0.60;;
12892;SDS011;6514;48.606;9.222;2023-11-21T12:57:42;0.80;;;0.60;;
12892;SDS011;6514;48.606;9.222;2023-11-21T13:00:10;0.67;;;0.60;;
12892;SDS011;6514;48.606;9.222;2023-11-21T13:02:52;0.60;;;0.60;;
12892;SDS011;6514;48.606;9.222;2023-11-21T13:05:25;0.73;;;0.73;;
12892;SDS011;6514;48.606;9.222;2023-11-21T13:07:54;1.53;;;0.50;;
12892;SDS011;6514;48.606;9.222;2023-11-21T13:10:23;0.73;;;0.70;;
12892;SDS011;6514;48.606;9.222;2023-11-21T13:12:54;0.60;;;0.60;;
12892;SDS011;6514;48.606;9.222;2023-11-21T13:15:23;0.50;;;0.50;;
12892;SDS011;6514;48.606;9.222;2023-11-21T13:17:51;0.60;;;0.60;;
12892;SDS011;6514;48.606;9.222;2023-11-21T13:20:18;0.63;;;0.63;;
12892;SDS011;6514;48.606;9.222;2023-11-21T13:22:49;1.20;;;0.77;;
12892;SDS011;6514;48.606;9.222;2023-11-21T13:25:19;0.80;;;0.50;;
12892;SDS011;6514;48.606;9.222;2023-11-21T13:27:47;0.50;;;0.50;;
12892;SDS011;6514;48.606;9.222;2023-11-21T13:30:13;0.77;;;0.60;;
12892;SDS011;6514;48.606;9.222;2023-11-21T13:32:41;0.70;;;0.70;;
12892;SDS011;6514;48.606;9.222;2023-11-21T13:35:11;0.70;;;0.70;;
12892;SDS011;6514;48.606;9.222;2023-11-21T13:37:46;0.50;;;0.50;;
12892;SDS011;6514;48.606;9.222;2023-11-21T13:40:16;0.40;;;0.40;;
12892;SDS011;6514;48.606;9.222;2023-11-21T13:42:47;0.80;;;0.80;;
12892;SDS011;6514;48.606;9.222;2023-11-21T13:45:18;0.60;;;0.60;;
12892;SDS011;6514;48.606;9.222;2023-11-21T13:47:47;0.87;;;0.50;;
12892;SDS011;6514;48.606;9.222;2023-11-21T13:50:17;2.00;;;0.60;;
12892;SDS011;6514;48.606;9.222;2023-11-21T13:52:48;0.60;;;0.60;;
12892;SDS011;6514;48.606;9.222;2023-11-21T13:55:18;1.40;;;0.90;;
12892;SDS011;6514;48.606;9.222;2023-11-21T13:57:45;1.07;;;0.97;;
12892;SDS011;6514;48.606;9.222;2023-11-21T14:00:15;0.80;;;0.80;;
12892;SDS011;6514;48.606;9.222;2023-11-21T14:02:56;3.83;;;2.63;;
12892;SDS011;6514;48.606;9.222;2023-11-21T14:05:26;3.23;;;1.77;;
12892;SDS011;6514;48.606;9.222;2023-11-21T14:07:56;2.30;;;1.60;;
12892;SDS011;6514;48.606;9.222;2023-11-21T14:10:28;2.43;;;2.10;;
12892;SDS011;6514;48.606;9.222;2023-11-21T14:13:01;2.90;;;2.00;;
12892;SDS011;6514;48.606;9.222;2023-11-21T14:15:29;4.07;;;2.67;;
12892;SDS011;6514;48.606;9.222;2023-11-21T14:17:58;2.40;;;2.20;;
12892;SDS011;6514;48.606;9.222;2023-11-21T14:20:28;3.73;;;3.30;;
12892;SDS011;6514;48.606;9.222;2023-11-21T14:22:55;3.87;;;3.43;;
12892;SDS011;6514;48.606;9.222;2023-11-21T14:25:22;2.70;;;2.50;;
12892;SDS011;6514;48.606;9.222;2023-11-21T14:27:49;2.50;;;2.20;;
12892;SDS011;6514;48.606;9.222;2023-11-21T14:30:16;1.87;;;1.67;;
12892;SDS011;6514;48.606;9.222;2023-11-21T14:32:44;1.27;;;1.17;;
12892;SDS011;6514;48.606;9.222;2023-11-21T14:35:11;0.70;;;0.70;;
12892;SDS011;6514;48.606;9.222;2023-11-21T14:37:40;0.80;;;0.80;;
12892;SDS011;6514;48.606;9.222;2023-11-21T14:40:08;0.60;;;0.60;;
12892;SDS011;6514;48.606;9.222;2023-11-21T14:42:35;0.40;;;0.40;;
12892;SDS011;6514;48.606;9.222;2023-11-21T14:45:05;1.27;;;0.57;;
12892;SDS011;6514;48.606;9.222;2023-11-21T14:47:33;1.20;;;0.43;;
12892;SDS011;6514;48.606;9.222;2023-11-21T14:50:00;1.00;;;0.50;;
12892;SDS011;6514;48.606;9.222;2023-11-21T14:52:48;0.50;;;0.50;;
12892;SDS011;6514;48.606;9.222;2023-11-21T14:55:20;0.60;;;0.60;;
12892;SDS011;6514;48.606;9.222;2023-11-21T14:57:56;0.67;;;0.50;;
12892;SDS011;6514;48.606;9.222;2023-11-21T15:00:23;1.33;;;0.80;;
12892;SDS011;6514;48.606;9.222;2023-11-21T15:03:09;0.83;;;0.60;;
12892;SDS011;6514;48.606;9.222;2023-11-21T15:05:46;0.77;;;0.77;;
12892;SDS011;6514;48.606;9.222;2023-11-21T15:08:16;1.03;;;0.70;;
12892;SDS011;6514;48.606;9.222;2023-11-21T15:10:46;2.03;;;1.07;;